Terminal Aerodrome Forecast
Issued by NWS Topeka, KS

Home | Current Version | Previous Version | Text Only | Print | Product List | Glossary On
Versions: 1 2 3 4 5 6 7 8 9 10 11 12
000
FTUS43 KTOP 181124
TAFTOP
TAF
KTOP 181124Z 1812/1912 18010KT P6SM SKC
     FM181400 19010G18KT P6SM FEW250
     FM182300 20006KT P6SM FEW200=

USA.gov is the U.S. government's official web portal to all federal, state and local government web resources and services.